createdAt,value
2022-12-31T00:01:11.840Z,0.50
2022-12-31T00:03:39.039Z,0.60
2022-12-31T00:06:14.775Z,0.53
2022-12-31T00:08:41.424Z,0.50
2022-12-31T00:11:08.573Z,1.37
2022-12-31T00:13:35.817Z,0.60
2022-12-31T00:16:12.273Z,0.50
2022-12-31T00:18:39.630Z,2.20
2022-12-31T00:21:07.427Z,0.80
2022-12-31T00:23:34.276Z,0.60
2022-12-31T00:26:05.168Z,0.60
2022-12-31T00:28:31.732Z,1.10
2022-12-31T00:31:04.013Z,0.60
2022-12-31T00:33:30.658Z,0.50
2022-12-31T00:36:03.947Z,0.70
2022-12-31T00:38:30.486Z,0.50
2022-12-31T00:40:57.114Z,2.57
2022-12-31T00:43:23.792Z,0.60
2022-12-31T00:45:50.439Z,0.50
2022-12-31T00:48:17.092Z,0.60
2022-12-31T00:50:44.786Z,0.60
2022-12-31T00:53:11.327Z,0.70
2022-12-31T00:55:38.296Z,0.53
2022-12-31T00:58:04.893Z,1.53
2022-12-31T01:00:31.521Z,0.50
2022-12-31T01:02:58.222Z,0.60
2022-12-31T01:05:24.939Z,0.50
2022-12-31T01:07:51.414Z,0.50
2022-12-31T01:10:37.948Z,0.50
2022-12-31T01:13:04.716Z,0.50
2022-12-31T01:15:35.798Z,0.60
2022-12-31T01:18:03.041Z,0.50
2022-12-31T01:20:29.551Z,0.93
2022-12-31T01:22:56.161Z,0.80
2022-12-31T01:25:22.822Z,0.70
2022-12-31T01:27:49.480Z,0.60
2022-12-31T01:30:16.057Z,0.50
2022-12-31T01:32:42.607Z,0.50
2022-12-31T01:35:09.288Z,0.60
2022-12-31T01:37:35.798Z,0.70
2022-12-31T01:40:02.374Z,0.50
2022-12-31T01:42:28.921Z,0.50
2022-12-31T01:44:55.802Z,0.50
2022-12-31T01:47:28.005Z,0.50
2022-12-31T01:49:59.199Z,0.80
2022-12-31T01:52:29.319Z,1.47
2022-12-31T01:54:58.385Z,0.60
2022-12-31T01:57:26.164Z,0.50
2022-12-31T01:59:53.206Z,0.70
2022-12-31T02:02:19.882Z,0.60
2022-12-31T02:04:47.066Z,0.50
2022-12-31T02:07:13.698Z,0.60
2022-12-31T02:09:40.886Z,0.53
2022-12-31T02:12:07.863Z,0.50
2022-12-31T02:14:45.200Z,3.67
2022-12-31T02:17:30.112Z,0.50
2022-12-31T02:19:59.753Z,1.57
2022-12-31T02:22:35.476Z,1.83
2022-12-31T02:25:11.350Z,0.60
2022-12-31T02:27:37.821Z,0.67
2022-12-31T02:30:12.818Z,1.03
2022-12-31T02:32:39.691Z,1.00
2022-12-31T02:35:19.245Z,0.60
2022-12-31T02:37:48.204Z,2.20
2022-12-31T02:40:17.558Z,2.20
2022-12-31T02:42:45.592Z,0.70
2022-12-31T02:45:17.951Z,1.00
2022-12-31T02:47:44.546Z,2.20
2022-12-31T02:50:17.042Z,0.93
2022-12-31T02:53:02.553Z,0.97
2022-12-31T02:55:29.184Z,1.20
2022-12-31T02:58:00.739Z,0.77
2022-12-31T03:00:47.886Z,0.50
2022-12-31T03:03:14.521Z,2.20
2022-12-31T03:05:42.397Z,1.33
2022-12-31T03:08:09.471Z,0.60
2022-12-31T03:10:36.367Z,0.93
2022-12-31T03:13:03.243Z,0.50
2022-12-31T03:15:31.324Z,1.87
2022-12-31T03:18:10.424Z,2.03
2022-12-31T03:21:06.382Z,0.90
2022-12-31T03:23:43.388Z,0.60
2022-12-31T03:26:11.318Z,1.00
2022-12-31T03:28:39.223Z,0.80
2022-12-31T03:31:06.202Z,5.03
2022-12-31T03:33:34.049Z,0.70
2022-12-31T03:36:04.348Z,0.97
2022-12-31T03:38:30.890Z,0.70
2022-12-31T03:40:57.934Z,0.93
2022-12-31T03:43:25.126Z,1.10
2022-12-31T03:45:52.656Z,0.50
2022-12-31T03:48:19.585Z,0.80
2022-12-31T03:50:46.169Z,2.00
2022-12-31T03:53:12.808Z,2.47
2022-12-31T03:55:39.561Z,0.67
2022-12-31T03:58:06.026Z,1.37
2022-12-31T04:00:32.871Z,0.50
2022-12-31T04:02:59.428Z,0.60
2022-12-31T04:05:26.068Z,1.53
2022-12-31T04:07:52.590Z,1.20
2022-12-31T04:10:19.588Z,2.20
2022-12-31T04:12:46.266Z,1.37
2022-12-31T04:15:20.231Z,2.90
2022-12-31T04:17:47.272Z,1.87
2022-12-31T04:20:13.997Z,0.60
2022-12-31T04:22:40.773Z,1.80
2022-12-31T04:25:11.114Z,0.60
2022-12-31T04:27:41.380Z,4.10
2022-12-31T04:30:09.803Z,0.80
2022-12-31T04:32:36.451Z,3.30
2022-12-31T04:35:02.982Z,1.40
2022-12-31T04:37:29.606Z,0.53
2022-12-31T04:40:01.834Z,1.70
2022-12-31T04:42:31.805Z,0.70
2022-12-31T04:44:58.440Z,0.60
2022-12-31T04:47:25.025Z,8.23
2022-12-31T04:49:51.545Z,0.60
2022-12-31T04:52:18.083Z,1.17
2022-12-31T04:54:44.655Z,1.07
2022-12-31T04:57:11.307Z,1.83
2022-12-31T04:59:39.577Z,0.60
2022-12-31T05:02:06.529Z,1.60
2022-12-31T05:04:33.262Z,1.33
2022-12-31T05:06:59.860Z,1.73
2022-12-31T05:09:28.452Z,0.97
2022-12-31T05:11:55.119Z,4.10
2022-12-31T05:14:22.111Z,4.43
2022-12-31T05:16:48.680Z,1.57
2022-12-31T05:19:15.330Z,1.80
2022-12-31T05:21:41.872Z,2.30
2022-12-31T05:24:08.423Z,4.57
2022-12-31T05:26:35.001Z,2.00
2022-12-31T05:29:01.570Z,1.93
2022-12-31T05:31:28.250Z,1.97
2022-12-31T05:33:54.870Z,4.50
2022-12-31T05:36:21.539Z,1.43
2022-12-31T05:38:48.189Z,8.13
2022-12-31T05:41:14.741Z,0.70
2022-12-31T05:43:41.274Z,0.80
2022-12-31T05:46:08.022Z,3.20
2022-12-31T05:48:34.562Z,3.13
2022-12-31T05:51:01.212Z,1.13
2022-12-31T05:53:27.743Z,3.13
2022-12-31T05:55:54.339Z,4.50
2022-12-31T05:58:20.883Z,1.63
2022-12-31T06:00:47.625Z,2.30
2022-12-31T06:03:14.248Z,4.63
2022-12-31T06:05:43.852Z,2.70
2022-12-31T06:08:11.246Z,3.27
2022-12-31T06:10:38.362Z,7.20
2022-12-31T06:13:05.004Z,0.83
2022-12-31T06:15:31.907Z,2.53
2022-12-31T06:17:58.448Z,1.43
2022-12-31T06:20:24.979Z,5.07
2022-12-31T06:22:51.512Z,3.17
2022-12-31T06:25:18.503Z,2.50
2022-12-31T06:27:45.142Z,1.97
2022-12-31T06:30:11.888Z,1.17
2022-12-31T06:32:39.393Z,1.80
2022-12-31T06:35:06.524Z,1.57
2022-12-31T06:37:33.141Z,2.40
2022-12-31T06:39:59.727Z,3.13
2022-12-31T06:42:28.293Z,1.97
2022-12-31T06:44:54.818Z,3.90
2022-12-31T06:47:21.395Z,1.43
2022-12-31T06:49:47.995Z,2.80
2022-12-31T06:52:14.505Z,1.83
2022-12-31T06:54:41.339Z,1.23
2022-12-31T06:57:08.963Z,2.23
2022-12-31T06:59:35.661Z,5.03
2022-12-31T07:02:02.365Z,2.73
2022-12-31T07:04:29.021Z,1.23
2022-12-31T07:07:05.354Z,1.03
2022-12-31T07:09:34.946Z,1.10
2022-12-31T07:12:07.747Z,0.90
2022-12-31T07:14:41.427Z,3.43
2022-12-31T07:17:28.244Z,0.70
2022-12-31T07:19:58.138Z,2.07
2022-12-31T07:22:24.894Z,0.90
2022-12-31T07:24:51.744Z,2.40
2022-12-31T07:27:30.964Z,1.43
2022-12-31T07:30:03.929Z,2.93
2022-12-31T07:32:30.590Z,1.33
2022-12-31T07:34:57.142Z,1.20
2022-12-31T07:37:32.953Z,2.97
2022-12-31T07:40:15.126Z,3.80
2022-12-31T07:42:41.773Z,3.43
2022-12-31T07:45:18.775Z,2.60
2022-12-31T07:47:45.655Z,1.20
2022-12-31T07:50:15.144Z,1.47
2022-12-31T07:52:41.834Z,3.37
2022-12-31T07:55:08.492Z,4.93
2022-12-31T07:57:38.538Z,1.27
2022-12-31T08:00:11.290Z,2.20
2022-12-31T08:02:50.170Z,12.23
2022-12-31T08:05:17.175Z,1.73
2022-12-31T08:07:53.574Z,2.03
2022-12-31T08:10:23.496Z,0.93
2022-12-31T08:12:50.318Z,2.13
2022-12-31T08:15:18.584Z,3.93
2022-12-31T08:17:45.436Z,7.47
2022-12-31T08:20:17.496Z,6.63
2022-12-31T08:22:59.352Z,2.60
2022-12-31T08:25:28.315Z,3.23
2022-12-31T08:28:13.736Z,3.63
2022-12-31T08:30:43.391Z,3.23
2022-12-31T08:33:22.247Z,7.90
2022-12-31T08:36:15.307Z,6.97
2022-12-31T08:39:17.473Z,1.93
2022-12-31T08:41:45.401Z,2.17
2022-12-31T08:44:34.102Z,3.87
2022-12-31T08:47:00.643Z,2.40
2022-12-31T08:49:28.158Z,1.27
2022-12-31T08:51:55.106Z,3.00
2022-12-31T08:54:21.866Z,1.23
2022-12-31T08:57:07.367Z,3.57
2022-12-31T08:59:41.526Z,2.80
2022-12-31T09:02:08.298Z,1.20
2022-12-31T09:04:46.032Z,3.37
2022-12-31T09:07:13.967Z,2.10
2022-12-31T09:09:47.398Z,5.03
2022-12-31T09:12:17.127Z,9.37
2022-12-31T09:14:52.003Z,1.83
2022-12-31T09:17:31.392Z,7.33
2022-12-31T09:19:58.370Z,1.07
2022-12-31T09:22:25.042Z,1.30
2022-12-31T09:24:51.762Z,4.93
2022-12-31T09:27:27.459Z,3.17
2022-12-31T09:30:00.579Z,6.33
2022-12-31T09:32:33.321Z,2.70
2022-12-31T09:35:12.714Z,3.27
2022-12-31T09:37:47.217Z,2.83
2022-12-31T09:40:29.087Z,2.47
2022-12-31T09:43:11.119Z,4.67
2022-12-31T09:45:50.971Z,2.53
2022-12-31T09:48:26.889Z,1.20
2022-12-31T09:51:02.620Z,3.53
2022-12-31T09:53:36.088Z,4.33
2022-12-31T09:56:12.070Z,3.27
2022-12-31T09:58:41.777Z,2.20
2022-12-31T10:01:27.575Z,2.97
2022-12-31T10:04:00.609Z,6.70
2022-12-31T10:06:31.098Z,1.57
2022-12-31T10:09:07.438Z,5.90
2022-12-31T10:11:46.739Z,5.60
2022-12-31T10:14:47.701Z,6.70
2022-12-31T10:17:14.392Z,4.53
2022-12-31T10:19:44.359Z,5.93
2022-12-31T10:22:14.070Z,4.57
2022-12-31T10:24:48.654Z,3.23
2022-12-31T10:27:27.653Z,3.53
2022-12-31T10:29:56.974Z,3.73
2022-12-31T10:32:42.404Z,5.67
2022-12-31T10:35:29.194Z,11.43
2022-12-31T10:38:11.751Z,1.00
2022-12-31T10:41:00.248Z,10.17
2022-12-31T10:43:26.812Z,8.30
2022-12-31T10:46:16.239Z,5.13
2022-12-31T10:48:54.629Z,6.83
2022-12-31T10:51:31.863Z,4.90
2022-12-31T10:54:13.885Z,5.60
2022-12-31T10:56:50.383Z,2.50
2022-12-31T10:59:30.840Z,5.00
2022-12-31T11:02:16.146Z,3.60
2022-12-31T11:05:06.199Z,2.30
2022-12-31T11:07:42.244Z,5.50
2022-12-31T11:10:27.835Z,2.23
2022-12-31T11:12:54.368Z,5.90
2022-12-31T11:15:20.940Z,2.70
2022-12-31T11:17:53.618Z,3.77
2022-12-31T11:20:27.918Z,3.43
2022-12-31T11:23:18.932Z,6.90
2022-12-31T11:25:54.810Z,4.30
2022-12-31T11:28:35.040Z,7.27
2022-12-31T11:31:01.714Z,3.83
2022-12-31T11:33:44.154Z,5.30
2022-12-31T11:36:39.401Z,3.20
2022-12-31T11:39:31.018Z,3.17
2022-12-31T11:42:16.890Z,1.90
2022-12-31T11:44:53.661Z,2.37
2022-12-31T11:48:04.295Z,6.30
2022-12-31T11:50:42.323Z,5.67
2022-12-31T11:53:24.062Z,4.80
2022-12-31T11:56:14.016Z,1.60
2022-12-31T11:58:48.461Z,3.23
2022-12-31T12:01:35.364Z,3.47
2022-12-31T12:04:02.412Z,2.77
2022-12-31T12:06:31.549Z,3.50
2022-12-31T12:09:07.988Z,9.60
2022-12-31T12:11:37.457Z,5.40
2022-12-31T12:14:29.809Z,2.70
2022-12-31T12:17:04.095Z,5.40
2022-12-31T12:19:32.720Z,1.83
2022-12-31T12:21:59.253Z,10.37
2022-12-31T12:24:27.090Z,3.97
2022-12-31T12:26:54.094Z,10.23
2022-12-31T12:29:22.355Z,3.30
2022-12-31T12:31:59.896Z,2.60
2022-12-31T12:34:26.488Z,2.43
2022-12-31T12:36:53.094Z,3.77
2022-12-31T12:39:46.392Z,5.00
2022-12-31T12:42:14.443Z,5.77
2022-12-31T12:44:42.041Z,2.93
2022-12-31T12:47:14.714Z,2.93
2022-12-31T12:49:44.417Z,6.33
2022-12-31T12:52:43.526Z,4.53
2022-12-31T12:55:17.369Z,4.67
2022-12-31T12:57:45.225Z,5.60
2022-12-31T13:00:22.321Z,3.03
2022-12-31T13:03:01.478Z,2.97
2022-12-31T13:05:46.788Z,3.67
2022-12-31T13:08:25.624Z,4.77
2022-12-31T13:10:55.396Z,3.67
2022-12-31T13:13:41.684Z,6.00
2022-12-31T13:16:13.564Z,3.20
2022-12-31T13:18:43.351Z,2.83
2022-12-31T13:21:22.898Z,14.90
2022-12-31T13:24:05.748Z,2.50
2022-12-31T13:26:38.813Z,6.43
2022-12-31T13:29:06.150Z,3.07
2022-12-31T13:31:37.754Z,3.73
2022-12-31T13:34:06.499Z,7.23
2022-12-31T13:36:35.594Z,7.03
2022-12-31T13:39:02.853Z,3.70
2022-12-31T13:41:33.233Z,4.70
2022-12-31T13:44:08.963Z,4.40
2022-12-31T13:46:47.808Z,3.60
2022-12-31T13:49:16.961Z,5.47
2022-12-31T13:51:46.362Z,3.73
2022-12-31T13:54:15.981Z,5.53
2022-12-31T13:56:44.199Z,7.57
2022-12-31T13:59:16.688Z,1.57
2022-12-31T14:01:49.314Z,2.40
2022-12-31T14:04:18.927Z,4.50
2022-12-31T14:06:54.606Z,4.83
2022-12-31T14:09:25.838Z,3.67
2022-12-31T14:12:09.200Z,5.30
2022-12-31T14:14:42.369Z,7.83
2022-12-31T14:17:28.456Z,4.10
2022-12-31T14:20:07.449Z,5.33
2022-12-31T14:22:39.923Z,4.67
2022-12-31T14:25:11.381Z,2.37
2022-12-31T14:27:42.151Z,2.70
2022-12-31T14:30:19.511Z,6.40
2022-12-31T14:32:52.222Z,2.67
2022-12-31T14:35:26.591Z,4.77
2022-12-31T14:38:00.305Z,3.97
2022-12-31T14:40:32.652Z,8.03
2022-12-31T14:43:08.627Z,6.33
2022-12-31T14:45:44.549Z,3.07
2022-12-31T14:48:22.290Z,6.60
2022-12-31T14:50:49.283Z,3.40
2022-12-31T14:53:22.023Z,5.03
2022-12-31T14:55:56.829Z,1.60
2022-12-31T14:58:30.324Z,3.73
2022-12-31T15:01:01.627Z,5.80
2022-12-31T15:03:40.105Z,1.80
2022-12-31T15:06:28.564Z,4.93
2022-12-31T15:08:55.313Z,1.90
2022-12-31T15:11:21.895Z,5.07
2022-12-31T15:13:48.487Z,3.67
2022-12-31T15:16:30.421Z,3.00
2022-12-31T15:19:06.503Z,9.63
2022-12-31T15:21:41.468Z,2.40
2022-12-31T15:24:17.463Z,5.10
2022-12-31T15:26:49.289Z,1.80
2022-12-31T15:29:33.378Z,1.93
2022-12-31T15:32:04.868Z,6.00
2022-12-31T15:34:33.853Z,2.40
2022-12-31T15:37:01.902Z,4.13
2022-12-31T15:39:31.628Z,1.07
2022-12-31T15:44:50.737Z,2.10
2022-12-31T15:47:40.625Z,2.07
2022-12-31T15:50:12.939Z,2.67
2022-12-31T15:52:42.147Z,3.93
2022-12-31T15:55:15.502Z,1.53
2022-12-31T15:57:42.713Z,2.80
2022-12-31T16:00:17.071Z,2.37
2022-12-31T16:02:44.321Z,2.77
2022-12-31T16:05:20.093Z,2.70
2022-12-31T16:07:47.252Z,1.47
2022-12-31T16:10:21.544Z,3.97
2022-12-31T16:12:48.513Z,1.87
2022-12-31T16:15:26.012Z,5.07
2022-12-31T16:18:03.838Z,1.77
2022-12-31T16:20:31.353Z,6.70
2022-12-31T16:22:58.716Z,3.83
2022-12-31T16:25:31.123Z,5.73
2022-12-31T16:27:58.496Z,1.60
2022-12-31T16:30:27.139Z,1.57
2022-12-31T16:32:55.731Z,2.13
2022-12-31T16:35:24.163Z,1.27
2022-12-31T16:38:09.913Z,1.43
2022-12-31T16:40:36.642Z,21.33
2022-12-31T16:43:03.418Z,1.67
2022-12-31T16:45:30.868Z,1.77
2022-12-31T16:48:00.997Z,2.70
2022-12-31T16:50:27.754Z,4.73
2022-12-31T16:53:05.699Z,3.77
2022-12-31T16:55:33.416Z,2.70
2022-12-31T16:58:16.961Z,2.23
2022-12-31T17:00:43.679Z,2.03
2022-12-31T17:03:23.857Z,5.53
2022-12-31T17:05:55.264Z,2.10
2022-12-31T17:08:23.956Z,2.93
2022-12-31T17:10:50.703Z,2.47
2022-12-31T17:13:27.752Z,3.80
2022-12-31T17:15:56.581Z,2.13
2022-12-31T17:18:26.934Z,2.20
2022-12-31T17:20:54.257Z,7.03
2022-12-31T17:23:28.984Z,1.97
2022-12-31T17:26:15.196Z,1.23
2022-12-31T17:28:46.064Z,3.30
2022-12-31T17:31:25.687Z,4.57
2022-12-31T17:33:53.952Z,1.20
2022-12-31T17:36:22.345Z,6.10
2022-12-31T17:38:48.988Z,1.63
2022-12-31T17:41:21.363Z,1.70
2022-12-31T17:43:50.774Z,1.30
2022-12-31T17:46:17.425Z,5.97
2022-12-31T17:48:45.143Z,4.00
2022-12-31T17:51:11.816Z,2.97
2022-12-31T17:53:38.341Z,3.53
2022-12-31T17:56:06.431Z,1.50
2022-12-31T17:58:38.320Z,3.70
2022-12-31T18:01:06.228Z,1.83
2022-12-31T18:03:32.961Z,12.47
2022-12-31T18:05:59.875Z,1.73
2022-12-31T18:08:26.385Z,2.60
2022-12-31T18:10:54.034Z,4.60
2022-12-31T18:13:22.302Z,4.00
2022-12-31T18:15:48.867Z,2.57
2022-12-31T18:18:25.532Z,3.30
2022-12-31T18:20:54.128Z,3.60
2022-12-31T18:23:22.087Z,6.47
2022-12-31T18:25:48.761Z,2.60
2022-12-31T18:28:15.351Z,6.17
2022-12-31T18:30:43.268Z,4.60
2022-12-31T18:33:12.319Z,3.63
2022-12-31T18:36:07.672Z,2.67
2022-12-31T18:38:26.620Z,2.50
2022-12-31T18:40:59.607Z,3.87
2022-12-31T18:43:26.340Z,14.50
2022-12-31T18:45:53.855Z,8.90
2022-12-31T18:48:20.888Z,8.20
2022-12-31T18:50:48.146Z,2.50
2022-12-31T18:53:19.379Z,5.53
2022-12-31T18:55:50.638Z,3.90
2022-12-31T18:58:17.756Z,4.97
2022-12-31T19:00:47.090Z,5.07
2022-12-31T19:03:18.697Z,4.40
2022-12-31T19:05:49.264Z,2.50
2022-12-31T19:08:19.810Z,5.93
2022-12-31T19:10:47.311Z,4.50
2022-12-31T19:13:14.898Z,8.53
2022-12-31T19:15:42.753Z,9.90
2022-12-31T19:18:09.765Z,9.80
2022-12-31T19:20:37.140Z,3.90
2022-12-31T19:23:03.939Z,7.43
2022-12-31T19:25:35.066Z,14.20
2022-12-31T19:28:02.737Z,4.70
2022-12-31T19:30:31.036Z,24.10
2022-12-31T19:32:58.056Z,21.63
2022-12-31T19:35:25.459Z,4.70
2022-12-31T19:37:53.325Z,9.20
2022-12-31T19:40:24.372Z,6.63
2022-12-31T19:42:53.342Z,11.33
2022-12-31T19:45:21.625Z,5.27
2022-12-31T19:47:51.737Z,7.13
2022-12-31T19:50:19.871Z,3.20
2022-12-31T19:52:47.320Z,5.57
2022-12-31T19:55:15.359Z,9.30
2022-12-31T19:57:42.191Z,6.70
2022-12-31T20:00:11.260Z,5.70
2022-12-31T20:02:41.763Z,5.10
2022-12-31T20:05:08.760Z,7.83
2022-12-31T20:07:35.402Z,6.27
2022-12-31T20:10:03.617Z,9.23
2022-12-31T20:12:30.369Z,4.67
2022-12-31T20:14:56.955Z,12.43
2022-12-31T20:17:23.905Z,6.70
2022-12-31T20:19:50.876Z,7.90
2022-12-31T20:22:17.646Z,11.23
2022-12-31T20:24:44.257Z,4.97
2022-12-31T20:27:16.535Z,6.10
2022-12-31T20:29:45.372Z,3.40
2022-12-31T20:32:11.981Z,7.83
2022-12-31T20:34:38.529Z,4.93
2022-12-31T20:37:05.099Z,5.37
2022-12-31T20:39:32.362Z,18.20
2022-12-31T20:41:59.034Z,10.63
2022-12-31T20:44:25.854Z,6.07
2022-12-31T20:46:52.527Z,4.93
2022-12-31T20:49:31.378Z,6.03
2022-12-31T20:52:05.598Z,4.40
2022-12-31T20:54:32.549Z,13.63
2022-12-31T20:57:00.168Z,4.00
2022-12-31T20:59:27.661Z,5.90
2022-12-31T21:02:20.515Z,29.43
2022-12-31T21:04:41.398Z,4.03
2022-12-31T21:07:08.109Z,5.43
2022-12-31T21:09:34.893Z,4.37
2022-12-31T21:12:20.313Z,4.63
2022-12-31T21:14:46.907Z,4.33
2022-12-31T21:17:13.430Z,6.60
2022-12-31T21:19:40.110Z,5.80
2022-12-31T21:22:06.836Z,5.27
2022-12-31T21:24:33.987Z,6.00
2022-12-31T21:27:00.533Z,9.30
2022-12-31T21:29:32.640Z,6.47
2022-12-31T21:32:01.461Z,6.43
2022-12-31T21:34:28.224Z,3.17
2022-12-31T21:36:54.970Z,5.67
2022-12-31T21:39:21.665Z,4.43
2022-12-31T21:41:50.979Z,6.37
2022-12-31T21:44:20.721Z,13.60
2022-12-31T21:47:33.474Z,6.23
2022-12-31T21:49:40.871Z,11.63
2022-12-31T21:52:26.191Z,12.63
2022-12-31T21:55:12.272Z,3.00
2022-12-31T21:58:07.187Z,2.83
2022-12-31T22:00:44.289Z,3.27
2022-12-31T22:03:24.350Z,14.50
2022-12-31T22:05:52.508Z,7.13
2022-12-31T22:08:20.170Z,4.70
2022-12-31T22:10:52.201Z,6.33
2022-12-31T22:13:20.029Z,8.50
2022-12-31T22:15:47.946Z,5.27
2022-12-31T22:18:15.722Z,6.90
2022-12-31T22:20:42.287Z,8.77
2022-12-31T22:23:09.036Z,18.13
2022-12-31T22:25:36.897Z,3.73
2022-12-31T22:28:36.602Z,6.30
2022-12-31T22:30:50.725Z,6.73
2022-12-31T22:33:17.481Z,5.10
2022-12-31T22:35:44.433Z,11.80
2022-12-31T22:38:12.369Z,6.57
2022-12-31T22:40:39.506Z,6.00
2022-12-31T22:43:06.262Z,10.70
2022-12-31T22:45:32.908Z,6.60
2022-12-31T22:47:59.515Z,6.73
2022-12-31T22:50:26.079Z,8.70
2022-12-31T22:52:52.936Z,3.87
2022-12-31T22:55:19.496Z,3.40
2022-12-31T22:57:46.137Z,4.40
2022-12-31T23:00:13.167Z,9.87
2022-12-31T23:02:41.963Z,3.47
2022-12-31T23:05:15.514Z,4.50
2022-12-31T23:07:43.022Z,11.40
2022-12-31T23:10:29.241Z,10.23
2022-12-31T23:12:55.800Z,11.33
2022-12-31T23:15:41.150Z,11.30
2022-12-31T23:18:26.458Z,25.57
2022-12-31T23:21:11.704Z,16.97
2022-12-31T23:23:38.365Z,30.97
2022-12-31T23:26:06.906Z,33.50
2022-12-31T23:28:33.397Z,27.10
2022-12-31T23:31:05.021Z,26.30
2022-12-31T23:33:31.621Z,30.17
2022-12-31T23:36:02.095Z,21.33
2022-12-31T23:38:28.778Z,19.73
2022-12-31T23:40:55.340Z,22.40
2022-12-31T23:43:22.245Z,24.90
2022-12-31T23:45:50.380Z,29.70
2022-12-31T23:48:16.979Z,19.53
2022-12-31T23:50:47.661Z,18.00
2022-12-31T23:53:17.619Z,19.87
2022-12-31T23:55:44.195Z,24.67
2022-12-31T23:58:10.784Z,18.40
